Latest Weather Observations for Campania

IDT60901

Issued at 7:11 pm EDT Sunday 14 February 2016 (issued every 10 minutes, with the page automatically refreshed every 10 minutes)

About weather observations | Map of Hobart area stations | Latest observations for Hobart area | Other Formats
Station Details ID: 094212 Name: CAMPANIA (KINCORA) Lat: -42.69 Lon: 147.43 Height: 45.0 m
Data from the previous 72 hours. | See also: Recent months at Campania
Date/Time
EDT
Tmp

°C
App
Tmp
°C
Dew
Point
°C
Rel
Hum
%
Delta-T

°C
Wind Press
QNH
hPa
Press
MSL
hPa
Rain
since
9 am
mm
Dir
 
Spd
km/h
Gust
km/h
Spd
kts
Gust
kts
14/07:00pm 16.4 8.8 2.8 40 6.2 W 32 57 17 31 - - 0.0
14/06:30pm 18.0 10.4 3.1 37 6.9 W 32 54 17 29 - - 0.0
14/06:24pm 17.8 10.6 2.9 37 6.9 W 30 48 16 26 - - 0.0
14/06:00pm 18.4 12.2 4.2 39 6.7 SW 26 39 14 21 - - 0.0
14/05:30pm 18.5 10.6 2.4 34 7.4 WSW 33 54 18 29 - - 0.0
14/05:00pm 19.4 10.9 3.2 34 7.6 W 37 56 20 30 - - 0.0
14/04:50pm 19.3 12.6 5.4 40 6.8 WNW 30 48 16 26 - - 0.0
14/04:42pm 19.1 11.8 5.6 41 6.6 WNW 33 59 18 32 - - 0.0
14/04:34pm 19.1 10.7 5.6 41 6.6 WSW 39 59 21 32 - - 0.0
14/04:30pm 19.0 10.3 6.1 43 6.4 WSW 41 57 22 31 - - 0.0
14/04:18pm 19.4 13.1 5.5 40 6.8 W 28 57 15 31 - - 0.0
14/04:00pm 19.1 12.0 5.6 41 6.6 W 32 44 17 24 - - 0.0
14/03:42pm 18.2 10.8 6.7 47 5.7 WSW 35 54 19 29 - - 0.0
14/03:30pm 18.7 10.4 6.2 44 6.2 WSW 39 61 21 33 - - 0.0
14/03:23pm 19.6 11.1 5.3 39 7.0 WNW 39 61 21 33 - - 0.0
14/03:22pm 19.6 11.1 5.3 39 7.0 WNW 39 52 21 28 - - 0.0
14/03:02pm 20.1 13.6 6.4 41 6.9 W 30 48 16 26 - - 0.0
14/03:00pm 20.0 13.5 6.7 42 6.7 W 30 44 16 24 - - 0.0
14/02:38pm 19.6 13.0 6.0 41 6.8 WNW 30 54 16 29 - - 0.0
14/02:30pm 20.6 14.8 6.2 39 7.2 WNW 26 41 14 22 - - 0.0
14/02:17pm 19.1 13.3 8.1 49 5.7 W 28 48 15 26 - - 0.0
14/02:15pm 18.6 13.6 8.0 50 5.4 W 24 50 13 27 - - 0.0
14/02:00pm 17.1 8.4 7.7 54 4.7 WSW 43 65 23 35 - - 0.0
14/01:56pm 17.8 9.7 7.2 50 5.3 W 39 65 21 35 - - 0.0
14/01:30pm 20.6 13.0 5.8 38 7.4 WNW 35 54 19 29 - - 0.0
14/01:00pm 20.8 12.2 6.4 39 7.3 NW 41 65 22 35 - - 0.0
14/12:35pm 19.6 11.9 7.0 44 6.4 WNW 37 57 20 31 - - 0.0
14/12:30pm 19.5 11.8 6.9 44 6.4 NW 37 52 20 28 - - 0.0
14/12:02pm 20.0 13.5 6.4 41 6.8 WNW 30 54 16 29 - - 0.0
14/12:00pm 20.8 14.1 5.6 37 7.6 WNW 30 43 16 23 - - 0.0
14/11:30am 20.3 11.7 4.4 35 7.7 WNW 39 63 21 34 - - 0.0
14/11:07am 21.0 14.0 5.8 37 7.6 WNW 32 50 17 27 - - 0.0
14/11:00am 20.1 12.3 5.0 37 7.4 WNW 35 50 19 27 - - 0.0
14/10:45am 19.8 12.5 4.3 36 7.5 WNW 32 54 17 29 - - 0.0
14/10:30am 20.0 14.0 5.3 38 7.2 NW 26 43 14 23 - - 0.0
14/10:00am 19.0 11.5 6.1 43 6.4 WNW 35 57 19 31 - - 0.0
14/09:50am 18.6 10.6 5.5 42 6.4 WNW 37 56 20 30 - - 0.0
14/09:30am 18.3 12.8 7.7 50 5.4 WNW 26 35 14 19 - - 0.0
14/09:11am 18.0 12.1 7.4 50 5.4 WNW 28 46 15 25 - - 0.0
14/09:00am 18.0 12.9 7.7 51 5.2 WNW 24 41 13 22 - - 0.0
14/08:30am 17.0 12.1 7.1 52 4.9 NW 22 35 12 19 - - 0.0
14/08:00am 17.4 13.1 6.9 50 5.2 NW 19 32 10 17 - - 0.0
14/07:30am 16.2 11.8 6.6 53 4.7 NNW 19 32 10 17 - - 0.0
14/07:00am 14.6 10.9 6.2 57 4.0 N 15 22 8 12 - - 0.0
14/06:30am 14.5 10.3 5.8 56 4.1 N 17 22 9 12 - - 0.0
14/06:00am 14.8 10.3 6.1 56 4.2 N 19 24 10 13 - - 0.0
14/05:30am 14.3 10.6 6.2 58 3.9 N 15 20 8 11 - - 0.0
14/05:00am 14.4 11.0 5.7 56 4.1 N 13 20 7 11 - - 0.0
14/04:30am 14.9 10.7 5.7 54 4.4 N 17 24 9 13 - - 0.0
14/04:00am 15.6 11.5 6.1 53 4.6 N 17 26 9 14 - - 0.0
14/03:30am 14.3 11.8 6.6 60 3.7 NW 9 13 5 7 - - 0.0
14/03:00am 14.7 11.5 6.8 59 3.9 NNW 13 20 7 11 - - 0.0
14/02:30am 15.4 11.5 7.2 58 4.1 NW 17 24 9 13 - - 0.0
14/02:00am 15.9 10.9 6.6 54 4.6 NW 22 30 12 16 - - 0.0
14/01:30am 16.0 13.1 8.2 60 4.0 WNW 13 20 7 11 - - 0.0
14/01:00am 16.6 12.7 8.6 59 4.1 WNW 19 30 10 16 - - 0.0
14/12:30am 16.7 10.4 7.6 55 4.6 WSW 30 39 16 21 - - 0.0
14/12:00am 16.7 11.1 8.7 59 4.1 W 28 39 15 21 - - 0.0
 
Date/Time
EDT
Tmp

°C
App
Tmp
°C
Dew
Point
°C
Rel
Hum
%
Delta-T

°C
Wind Press
QNH
hPa
Press
MSL
hPa
Rain
since
9 am
mm
Dir
 
Spd
km/h
Gust
km/h
Spd
kts
Gust
kts
13/11:30pm 17.3 13.1 9.7 61 4.0 W 22 39 12 21 - - 0.0
13/11:00pm 18.3 15.1 11.1 63 3.9 W 19 33 10 18 - - 0.0
13/10:30pm 17.6 18.3 13.3 76 2.4 ESE 2 9 1 5 - - 0.0
13/10:00pm 17.8 17.3 13.7 77 2.3 S 9 15 5 8 - - 0.0
13/09:30pm 18.1 16.8 13.6 75 2.6 SSE 13 19 7 10 - - 0.0
13/09:00pm 18.5 15.9 13.8 74 2.7 S 20 26 11 14 - - 0.0
13/08:30pm 19.2 17.0 14.5 74 2.7 S 19 22 10 12 - - 0.0
13/08:00pm 19.4 16.1 14.0 71 3.1 SSE 24 35 13 19 - - 0.0
13/07:51pm 20.0 15.2 13.9 68 3.5 S 32 37 17 20 - - 0.0
13/07:30pm 25.0 21.0 8.9 36 8.7 W 20 30 11 16 - - 0.0
13/07:00pm 26.0 20.7 8.5 33 9.5 W 26 35 14 19 - - 0.0
13/06:46pm 26.2 20.3 7.7 31 9.9 W 28 50 15 27 - - 0.0
13/06:30pm 26.5 19.8 7.5 30 10.1 W 32 44 17 24 - - 0.0
13/06:12pm 26.9 20.9 6.9 28 10.6 W 28 48 15 26 - - 0.0
13/06:00pm 26.4 23.2 10.1 36 9.1 SSW 17 24 9 13 - - 0.0
13/05:30pm 26.3 22.6 10.0 36 9.1 SSE 20 30 11 16 - - 0.0
13/05:00pm 27.1 22.9 9.9 34 9.6 SSE 22 30 12 16 - - 0.0
13/04:30pm 28.2 24.8 10.4 33 10.1 S 19 33 10 18 - - 0.0
13/04:00pm 29.1 23.0 8.2 27 11.4 WSW 30 41 16 22 - - 0.0
13/03:30pm 29.6 24.8 7.5 25 12.0 WNW 22 35 12 19 - - 0.0
13/03:00pm 29.4 24.6 7.3 25 11.9 WSW 22 35 12 19 - - 0.0
13/02:30pm 29.2 24.8 7.2 25 11.8 W 20 30 11 16 - - 0.0
13/02:00pm 28.8 24.3 6.8 25 11.7 WNW 20 32 11 17 - - 0.0
13/01:30pm 28.4 25.3 7.1 26 11.4 WNW 13 24 7 13 - - 0.0
13/01:00pm 27.3 24.1 6.7 27 10.9 WNW 13 24 7 13 - - 0.0
13/12:30pm 26.6 22.2 6.6 28 10.5 WNW 19 32 10 17 - - 0.0
13/12:00pm 25.5 21.2 7.1 31 9.7 W 19 30 10 16 - - 0.0
13/11:30am 24.8 20.3 7.0 32 9.3 W 20 28 11 15 - - 0.0
13/11:00am 24.1 19.5 6.4 32 9.1 WNW 20 32 11 17 - - 0.0
13/10:30am 23.1 18.8 6.8 35 8.4 W 19 30 10 16 - - 0.0
13/10:00am 21.9 18.1 7.7 40 7.4 NNW 17 22 9 12 - - 0.0
13/09:30am 21.4 18.3 8.7 44 6.7 NNW 15 20 8 11 - - 0.0
13/09:00am 20.0 18.2 8.0 46 6.2 NNW 7 11 4 6 - - 0.0
13/08:30am 18.8 17.5 9.8 56 4.8 NNW 7 13 4 7 - - 0.0
13/08:00am 17.2 16.0 10.3 64 3.7 N 7 9 4 5 - - 0.0
13/07:30am 17.2 16.0 10.3 64 3.7 NW 7 11 4 6 - - 0.0
13/07:00am 17.3 14.9 10.2 63 3.8 NNW 13 17 7 9 - - 0.0
13/06:30am 17.6 14.2 10.5 63 3.8 N 19 24 10 13 - - 0.0
13/06:00am 17.3 13.7 10.7 65 3.5 N 20 26 11 14 - - 0.0
13/05:30am 16.9 13.9 10.5 66 3.4 N 17 24 9 13 - - 0.0
13/05:00am 16.7 13.2 10.3 66 3.4 N 19 22 10 12 - - 0.0
13/04:30am 17.4 14.2 10.1 62 3.9 N 17 24 9 13 - - 0.0
13/04:00am 17.6 16.5 9.8 60 4.1 NW 6 11 3 6 - - 0.0
13/03:30am 17.4 15.6 10.8 65 3.5 NNW 11 17 6 9 - - 0.0
13/03:00am 17.8 15.4 11.4 66 3.5 NNW 15 20 8 11 - - 0.0
13/02:30am 18.4 15.1 11.5 64 3.8 N 20 28 11 15 - - 0.0
13/02:00am 18.8 15.3 10.9 60 4.3 N 20 26 11 14 - - 0.0
13/01:30am 19.3 16.2 10.3 56 4.8 N 17 24 9 13 - - 0.0
13/01:00am 19.6 16.8 10.0 54 5.1 N 15 19 8 10 - - 0.0
13/12:30am 20.5 18.3 9.4 49 5.9 NNW 11 17 6 9 - - 0.0
13/12:00am 21.0 18.3 10.5 51 5.7 N 15 20 8 11 - - 0.0
 
Date/Time
EDT
Tmp

°C
App
Tmp
°C
Dew
Point
°C
Rel
Hum
%
Delta-T

°C
Wind Press
QNH
hPa
Press
MSL
hPa
Rain
since
9 am
mm
Dir
 
Spd
km/h
Gust
km/h
Spd
kts
Gust
kts
12/11:30pm 21.7 18.0 9.6 46 6.5 N 19 32 10 17 - - 0.0
12/11:00pm 22.2 15.9 9.7 45 6.8 N 33 44 18 24 - - 0.0
12/10:30pm 22.8 16.9 8.9 41 7.4 N 30 39 16 21 - - 0.0
12/10:00pm 23.2 18.9 9.2 41 7.6 N 22 32 12 17 - - 0.0
12/09:30pm 23.7 17.6 9.7 41 7.6 N 32 44 17 24 - - 0.0
12/09:18pm 24.0 18.6 9.6 40 7.9 N 28 48 15 26 - - 0.0
12/09:00pm 24.2 18.9 9.8 40 7.9 N 28 35 15 19 - - 0.0
12/08:30pm 24.7 19.3 7.8 34 9.0 N 26 37 14 20 - - 0.0
12/08:00pm 23.3 20.5 14.3 57 5.3 NNE 22 30 12 16 - - 0.0
12/07:30pm 24.2 20.2 14.0 53 6.0 NNE 28 44 15 24 - - 0.0
12/07:00pm 25.0 21.1 14.5 52 6.3 NNE 28 37 15 20 - - 0.0
12/06:30pm 24.9 20.5 14.1 51 6.4 NNE 30 41 16 22 - - 0.0
12/06:00pm 25.6 20.9 14.4 50 6.7 NE 32 44 17 24 - - 0.0
12/05:30pm 26.0 22.0 14.1 47 7.1 NE 28 39 15 21 - - 0.0
12/05:00pm 25.7 21.3 14.2 49 6.8 ENE 30 46 16 25 - - 0.0
12/04:56pm 26.0 22.0 14.1 47 7.1 NE 28 46 15 25 - - 0.0
12/04:30pm 25.8 21.1 14.3 49 6.9 ENE 32 43 17 23 - - 0.0
12/04:00pm 25.8 21.4 14.0 48 7.0 NE 30 43 16 23 - - 0.0
12/03:30pm 25.3 21.9 14.7 51 6.3 NE 26 35 14 19 - - 0.0
12/03:00pm 27.1 21.9 10.3 35 9.4 NE 28 43 15 23 - - 0.0
12/02:30pm 26.5 22.0 10.2 36 9.1 N 24 32 13 17 - - 0.0
12/02:00pm 26.6 23.3 11.5 39 8.6 N 20 35 11 19 - - 0.0
12/01:30pm 25.3 22.4 12.2 44 7.5 NNW 19 26 10 14 - - 0.0
12/01:00pm 23.4 21.9 11.8 48 6.6 N 11 20 6 11 - - 0.0
12/12:30pm 23.8 23.0 12.8 50 6.3 NE 9 20 5 11 - - 0.0
12/12:00pm 22.7 21.6 13.2 55 5.5 ENE 11 17 6 9 - - 0.0
12/11:30am 21.3 20.2 13.0 59 4.7 ENE 11 15 6 8 - - 0.0
12/11:00am 20.2 20.4 12.9 63 4.1 S 4 9 2 5 - - 0.0
12/10:30am 19.1 18.0 13.1 68 3.4 NNE 11 15 6 8 - - 0.0
12/10:00am 18.5 17.8 13.1 71 3.0 ENE 9 13 5 7 - - 0.0
12/09:30am 17.8 17.5 13.3 75 2.5 N 7 11 4 6 - - 0.0
12/09:00am 17.4 17.9 13.9 80 2.0 SSE 4 9 2 5 - - 0.0
12/08:30am 16.4 16.7 13.5 83 1.6 S 4 7 2 4 - - 0.0
12/08:00am 16.0 15.8 13.1 83 1.6 SSE 6 7 3 4 - - 0.0
12/07:30am 15.8 15.6 13.1 84 1.5 SE 6 7 3 4 - - 0.0
12/07:00am 15.8 16.8 13.1 84 1.5 CALM 0 0 0 0 - - 0.0
12/06:30am 15.6 16.5 12.9 84 1.5 CALM 0 0 0 0 - - 0.0
12/06:00am 15.5 16.4 12.8 84 1.5 CALM 0 0 0 0 - - 0.0
12/05:30am 15.5 15.7 13.0 85 1.4 S 4 6 2 3 - - 0.0
12/05:00am 15.4 16.3 12.9 85 1.4 CALM 0 0 0 0 - - 0.0
12/04:30am 15.4 15.2 13.1 86 1.3 ESE 6 7 3 4 - - 0.0
12/04:00am 15.3 14.9 13.0 86 1.3 S 7 9 4 5 - - 0.0
12/03:30am 15.4 15.2 13.1 86 1.3 S 6 7 3 4 - - 0.0
12/03:00am 15.2 15.0 13.1 87 1.2 SSE 6 7 3 4 - - 0.0
12/02:30am 15.2 14.8 13.1 87 1.2 S 7 7 4 4 - - 0.0
12/02:00am 15.1 14.9 13.1 88 1.1 S 6 7 3 4 - - 0.0
12/01:30am 15.1 16.1 13.3 89 1.0 CALM 0 0 0 0 - - 0.0
12/01:00am 15.0 16.0 13.2 89 1.0 CALM 0 0 0 0 - - 0.0
12/12:30am 14.8 15.4 13.2 90 0.9 NE 2 7 1 4 - - 0.0
12/12:00am 14.8 13.2 12.8 88 1.1 NNE 13 15 7 8 - - 0.0
 
Date/Time
EDT
Tmp

°C
App
Tmp
°C
Dew
Point
°C
Rel
Hum
%
Delta-T

°C
Wind Press
QNH
hPa
Press
MSL
hPa
Rain
since
9 am
mm
Dir
 
Spd
km/h
Gust
km/h
Spd
kts
Gust
kts
11/11:30pm 17.3 16.0 11.1 67 3.4 E 9 15 5 8 - - 0.0
11/11:00pm 17.3 15.9 10.9 66 3.4 SE 9 15 5 8 - - 0.0
11/10:30pm 17.3 15.5 10.9 66 3.4 SSE 11 15 6 8 - - 0.0
11/10:00pm 17.5 15.2 10.6 64 3.7 SE 13 19 7 10 - - 0.0
11/09:30pm 17.5 14.9 10.6 64 3.7 SE 15 20 8 11 - - 0.0
11/09:00pm 17.6 14.6 10.7 64 3.7 SSE 17 22 9 12 - - 0.0
11/08:30pm 17.8 15.2 10.7 63 3.8 SSE 15 20 8 11 - - 0.0
11/08:00pm 18.1 15.6 11.0 63 3.8 SSE 15 20 8 11 - - 0.0
11/07:30pm 18.1 14.6 11.0 63 3.8 S 20 26 11 14 - - 0.0

Latest Capital City Observations: Canberra | Sydney | Melbourne | Brisbane | Adelaide | Perth | Hobart | Darwin

Other Formats:

Comma delimited format used in spreadsheet applications
http://www.bom.gov.au/fwo/IDT60901/IDT60901.95972.axf

JavaScript Object Notation format (JSON) in row-major order
http://www.bom.gov.au/fwo/IDT60901/IDT60901.95972.json